Time;durP1;ratioP1;P1;durP2;ratioP2;P2;SDS_P1;SDS_P2;PMS_P1;PMS_P2;Temp;Humidity;BMP_temperature;BMP_pressure;BME280_temperature;BME280_humidity;BME280_pressure;Samples;Min_cycle;Max_cycle;Signal;HPM_P1;HPM_P2
2022/05/18 00:00:20;;;;;;;5.90;3.00;;;;;;;18.50;78.95;101160.28;685140;28;1327;-43
2022/05/18 00:00:41;;;;;;;4.93;2.95;;;;;;;18.53;77.99;101162.84;683842;28;2206;-45
2022/05/18 00:01:07;;;;;;;5.73;3.03;;;;;;;18.54;78.34;101164.59;684027;28;1406;-44
2022/05/18 00:01:27;;;;;;;4.90;2.88;;;;;;;18.51;78.67;101164.66;686043;28;5446;-44
2022/05/18 00:01:48;;;;;;;4.50;2.87;;;;;;;18.51;78.03;101159.34;690516;28;1315;-43
2022/05/18 00:02:08;;;;;;;5.07;2.88;;;;;;;18.51;78.68;101159.34;689135;28;1553;-43
2022/05/18 00:02:29;;;;;;;4.50;2.67;;;;;;;18.49;78.94;101166.50;686940;28;1505;-45
2022/05/18 00:02:49;;;;;;;5.03;2.80;;;;;;;18.47;78.93;101165.66;687734;28;1275;-44
2022/05/18 00:03:11;;;;;;;5.15;2.90;;;;;;;18.46;79.53;101163.94;689931;28;1489;-44
2022/05/18 00:03:35;;;;;;;5.97;3.05;;;;;;;18.47;79.48;101157.72;684987;28;1505;-43
2022/05/18 00:03:56;;;;;;;5.57;2.50;;;;;;;18.45;79.37;101162.19;683769;28;1184;-47
2022/05/18 00:04:16;;;;;;;5.23;2.80;;;;;;;18.44;79.33;101163.09;684032;28;4507;-43
2022/05/18 00:04:37;;;;;;;4.80;2.88;;;;;;;18.43;78.78;101164.00;684603;28;1311;-43
2022/05/18 00:04:57;;;;;;;4.50;2.90;;;;;;;18.43;78.46;101158.72;684810;28;1245;-43
2022/05/18 00:05:18;;;;;;;5.03;3.05;;;;;;;18.42;78.89;101164.94;685654;28;1168;-44
2022/05/18 00:05:40;;;;;;;5.40;3.30;;;;;;;18.41;79.29;101163.22;688549;28;1069;-43
2022/05/18 00:06:02;;;;;;;5.25;3.03;;;;;;;18.38;79.71;101169.44;690800;28;1121;-43
2022/05/18 00:06:22;;;;;;;4.93;2.80;;;;;;;18.36;80.07;101168.66;689281;28;1452;-43
2022/05/18 00:06:43;;;;;;;5.57;2.97;;;;;;;18.44;78.23;101165.75;689216;28;1120;-43
2022/05/18 00:07:04;;;;;;;5.88;3.00;;;;;;;18.47;78.00;101163.00;689295;28;1159;-44
2022/05/18 00:07:24;;;;;;;5.20;3.07;;;;;;;18.49;77.81;101169.13;686088;28;4460;-44
2022/05/18 00:07:45;;;;;;;4.78;3.10;;;;;;;18.44;79.09;101163.09;687213;28;1468;-44
2022/05/18 00:08:06;;;;;;;5.03;2.97;;;;;;;18.40;79.55;101156.16;688260;28;1269;-43
2022/05/18 00:08:28;;;;;;;5.25;3.10;;;;;;;18.39;79.19;101160.59;681545;28;1589;-43
2022/05/18 00:08:49;;;;;;;5.38;3.00;;;;;;;18.38;78.73;101165.00;682001;28;1410;-45
2022/05/18 00:09:09;;;;;;;4.90;2.73;;;;;;;18.40;78.32;101166.75;679984;28;1504;-43
2022/05/18 00:09:29;;;;;;;5.35;2.70;;;;;;;18.47;77.99;101163.91;681324;28;1306;-45
2022/05/18 00:09:51;;;;;;;5.83;2.97;;;;;;;18.47;78.28;101169.19;682173;28;1492;-44
2022/05/18 00:10:11;;;;;;;5.13;2.90;;;;;;;18.47;78.09;101170.94;684341;28;1382;-43
2022/05/18 00:10:33;;;;;;;6.07;3.00;;;;;;;18.45;79.10;101167.50;686734;28;4418;-44
2022/05/18 00:10:54;;;;;;;4.97;3.08;;;;;;;18.44;79.04;101168.41;687296;28;1180;-45
2022/05/18 00:11:17;;;;;;;5.20;3.00;;;;;;;18.47;78.35;101165.66;688682;28;1180;-43
2022/05/18 00:11:38;;;;;;;5.13;3.00;;;;;;;18.48;78.08;101168.25;686276;28;1349;-43
2022/05/18 00:11:58;;;;;;;5.95;2.88;;;;;;;18.50;77.84;101168.25;687642;28;1278;-44
2022/05/18 00:12:18;;;;;;;5.57;3.10;;;;;;;18.49;77.92;101171.78;685171;28;880;-44
2022/05/18 00:12:47;;;;;;;5.88;3.20;;;;;;;18.47;78.84;101163.00;680222;28;1478;-43
2022/05/18 00:13:08;;;;;;;6.35;3.10;;;;;;;18.49;78.36;101166.50;680125;29;1631;-44
2022/05/18 00:13:29;;;;;;;6.82;3.03;;;;;;;18.52;77.97;101166.41;679141;28;4357;-43
2022/05/18 00:13:51;;;;;;;6.60;3.10;;;;;;;18.51;77.86;101169.94;679899;28;1501;-43
2022/05/18 00:14:12;;;;;;;5.38;3.08;;;;;;;18.51;77.89;101168.19;683209;28;1500;-44
2022/05/18 00:14:33;;;;;;;6.57;3.15;;;;;;;18.50;78.06;101165.59;686490;28;1423;-44
2022/05/18 00:14:53;;;;;;;5.35;3.40;;;;;;;18.50;77.73;101162.94;684842;28;1215;-44
2022/05/18 00:15:17;;;;;;;5.10;3.17;;;;;;;18.49;77.90;101172.66;684037;28;1393;-43
2022/05/18 00:15:38;;;;;;;5.10;3.05;;;;;;;18.52;77.95;101169.91;684233;28;1410;-46
2022/05/18 00:15:59;;;;;;;5.13;2.80;;;;;;;18.57;77.70;101169.78;684670;28;1212;-43
2022/05/18 00:16:22;;;;;;;4.40;2.83;;;;;;;18.52;78.71;101171.69;685927;28;5334;-44
2022/05/18 00:16:43;;;;;;;5.18;3.20;;;;;;;18.51;78.27;101175.25;682939;28;3748;-44
2022/05/18 00:17:04;;;;;;;5.20;3.13;;;;;;;18.49;78.21;101169.13;682540;28;1307;-44
2022/05/18 00:17:25;;;;;;;5.07;2.83;;;;;;;18.62;77.65;101170.53;682156;28;1481;-43
2022/05/18 00:17:45;;;;;;;4.93;2.90;;;;;;;18.63;77.65;101174.03;682291;28;1371;-44
2022/05/18 00:18:06;;;;;;;5.18;2.83;;;;;;;18.62;77.49;101170.53;681982;28;1438;-44
2022/05/18 00:18:27;;;;;;;5.22;2.97;;;;;;;18.61;77.33;101168.78;683390;28;1152;-44
2022/05/18 00:18:47;;;;;;;4.82;2.92;;;;;;;18.62;77.26;101175.81;683643;28;1279;-45
2022/05/18 00:19:08;;;;;;;6.40;3.20;;;;;;;18.61;77.35;101171.41;683884;28;1391;-44
2022/05/18 00:19:30;;;;;;;5.95;3.30;;;;;;;18.61;77.46;101176.72;680335;28;4535;-43
2022/05/18 00:19:50;;;;;;;4.88;3.08;;;;;;;18.58;77.95;101171.53;681816;28;1316;-44
2022/05/18 00:20:11;;;;;;;4.90;2.90;;;;;;;18.56;78.00;101168.03;682114;28;1407;-43
2022/05/18 00:20:32;;;;;;;5.57;3.08;;;;;;;18.55;77.90;101177.78;682499;28;1387;-43
2022/05/18 00:20:53;;;;;;;6.53;3.20;;;;;;;18.55;77.59;101171.59;681532;28;1252;-44
2022/05/18 00:21:13;;;;;;;5.72;3.00;;;;;;;18.58;77.52;101175.94;681472;28;1219;-43
2022/05/18 00:21:34;;;;;;;6.13;3.10;;;;;;;18.58;77.76;101171.53;684070;28;1235;-43
2022/05/18 00:21:55;;;;;;;5.13;3.10;;;;;;;18.55;78.56;101174.22;684303;28;1177;-43
2022/05/18 00:22:15;;;;;;;4.68;2.80;;;;;;;18.54;78.29;101176.03;682421;28;4791;-45
2022/05/18 00:22:56;;;;;;;4.65;3.00;;;;;;;18.58;77.51;101176.81;683764;28;1133;-43
2022/05/18 00:23:18;;;;;;;6.57;3.10;;;;;;;18.57;77.53;101175.06;688878;28;1349;-43
2022/05/18 00:23:38;;;;;;;6.50;3.10;;;;;;;18.57;77.66;101169.78;688542;28;1395;-44
2022/05/18 00:23:58;;;;;;;5.40;3.10;;;;;;;18.56;77.80;101173.34;686554;28;1128;-43
2022/05/18 00:24:19;;;;;;;5.70;3.20;;;;;;;18.58;78.33;101174.16;686073;28;1334;-43
2022/05/18 00:24:39;;;;;;;5.13;3.13;;;;;;;18.57;77.81;101169.78;687574;28;1563;-44
2022/05/18 00:25:01;;;;;;;5.47;3.17;;;;;;;18.67;77.38;101170.38;687465;28;1217;-44
2022/05/18 00:25:25;;;;;;;5.00;3.20;;;;;;;18.67;77.24;101173.00;686802;28;4399;-44
2022/05/18 00:25:45;;;;;;;4.55;3.00;;;;;;;18.63;77.65;101174.88;685599;28;1492;-45
2022/05/18 00:26:06;;;;;;;4.60;3.10;;;;;;;18.60;79.08;101176.78;687494;28;1496;-44
2022/05/18 00:26:27;;;;;;;5.28;3.03;;;;;;;18.65;77.84;101173.06;687023;28;1337;-43
2022/05/18 00:26:47;;;;;;;5.87;3.13;;;;;;;18.66;77.76;101177.47;687485;28;1393;-43
2022/05/18 00:27:07;;;;;;;5.78;3.20;;;;;;;18.74;77.01;101176.34;687783;28;1351;-44
2022/05/18 00:27:28;;;;;;;6.80;3.20;;;;;;;18.72;76.84;101176.41;688244;28;1496;-43
2022/05/18 00:27:48;;;;;;;6.93;2.97;;;;;;;18.71;77.00;101175.50;685202;28;1441;-44
2022/05/18 00:28:09;;;;;;;4.95;2.90;;;;;;;18.70;77.15;101176.41;684385;28;1366;-44
2022/05/18 00:28:30;;;;;;;4.72;2.90;;;;;;;18.72;77.31;101174.59;683753;28;4356;-44
2022/05/18 00:28:52;;;;;;;5.28;3.30;;;;;;;18.65;77.61;101182.78;684171;28;1458;-44
2022/05/18 00:29:12;;;;;;;5.50;3.13;;;;;;;18.71;77.47;101178.16;684434;28;1686;-44
2022/05/18 00:29:34;;;;;;;4.70;3.20;;;;;;;18.70;77.13;101181.72;686503;28;1440;-44
2022/05/18 00:29:54;;;;;;;4.60;3.22;;;;;;;18.72;77.10;101182.56;686582;28;1223;-44
2022/05/18 00:30:17;;;;;;;5.43;3.30;;;;;;;18.71;77.32;101179.94;686211;28;1391;-45
2022/05/18 00:30:38;;;;;;;5.72;3.17;;;;;;;18.69;77.04;101182.66;687278;28;1366;-44
2022/05/18 00:31:00;;;;;;;5.85;3.10;;;;;;;18.67;77.22;101175.66;687714;28;1144;-44
2022/05/18 00:31:21;;;;;;;5.47;3.20;;;;;;;18.63;77.58;101179.31;686177;28;4392;-43
2022/05/18 00:31:41;;;;;;;6.05;3.17;;;;;;;18.58;77.72;101182.13;685767;28;1366;-43
2022/05/18 00:32:02;;;;;;;7.10;2.90;;;;;;;18.55;78.47;101174.22;687819;28;1318;-45
2022/05/18 00:32:23;;;;;;;4.80;2.72;;;;;;;18.53;78.27;101184.03;686547;28;1179;-45
2022/05/18 00:32:43;;;;;;;4.70;2.90;;;;;;;18.51;78.05;101181.44;687106;28;1400;-44
2022/05/18 00:33:05;;;;;;;5.47;3.07;;;;;;;18.52;77.80;101182.28;687280;28;1314;-43
2022/05/18 00:33:26;;;;;;;5.40;3.03;;;;;;;18.51;77.85;101181.44;688011;28;1335;-44
2022/05/18 00:33:47;;;;;;;5.35;3.20;;;;;;;18.50;77.99;101182.31;686786;28;1319;-43
2022/05/18 00:34:09;;;;;;;5.97;3.05;;;;;;;18.49;78.42;101179.72;687219;28;1853;-43
2022/05/18 00:34:29;;;;;;;5.80;3.08;;;;;;;18.48;78.60;101185.94;687151;28;4299;-43
2022/05/18 00:34:49;;;;;;;7.00;3.10;;;;;;;18.43;79.21;101188.72;687297;28;1351;-44
2022/05/18 00:35:11;;;;;;;5.55;3.05;;;;;;;18.46;79.00;101182.47;687608;28;1489;-44
2022/05/18 00:35:33;;;;;;;5.55;3.30;;;;;;;18.42;79.22;101179.03;688268;28;1531;-45
2022/05/18 00:35:57;;;;;;;6.47;3.10;;;;;;;18.40;79.73;101182.63;687180;28;1154;-46
2022/05/18 00:36:17;;;;;;;5.68;3.10;;;;;;;18.37;79.44;101189.78;686888;28;1310;-44
2022/05/18 00:36:37;;;;;;;5.27;2.77;;;;;;;18.37;80.04;101178.28;687680;28;1381;-44
2022/05/18 00:37:00;;;;;;;5.50;3.03;;;;;;;18.35;79.75;101186.28;687215;28;1914;-43
2022/05/18 00:37:20;;;;;;;5.68;3.00;;;;;;;18.33;79.63;101182.84;686819;28;5295;-44
2022/05/18 00:37:41;;;;;;;5.65;3.17;;;;;;;18.31;80.12;101184.63;686873;28;949;-44
2022/05/18 00:38:03;;;;;;;6.30;3.10;;;;;;;18.28;80.67;101183.88;689070;28;916;-45
2022/05/18 00:38:25;;;;;;;5.85;3.17;;;;;;;18.26;80.97;101183.03;687031;28;1334;-43
2022/05/18 00:38:45;;;;;;;5.32;3.30;;;;;;;18.24;80.38;101185.72;687697;28;1338;-44
2022/05/18 00:39:06;;;;;;;4.80;3.10;;;;;;;18.22;80.21;101182.28;686501;28;4419;-44
2022/05/18 00:39:26;;;;;;;5.85;3.17;;;;;;;18.20;81.26;101178.78;687660;28;1302;-45
2022/05/18 00:39:47;;;;;;;6.63;3.20;;;;;;;18.16;81.54;101185.94;687236;28;1298;-45
2022/05/18 00:40:11;;;;;;;4.88;3.10;;;;;;;18.14;81.94;101187.78;688270;28;1319;-44
2022/05/18 00:40:32;;;;;;;5.18;2.88;;;;;;;18.13;81.76;101185.16;687489;28;4491;-44
2022/05/18 00:40:53;;;;;;;5.15;3.10;;;;;;;18.12;81.56;101183.44;685924;28;1548;-45
2022/05/18 00:41:19;;;;;;;4.30;3.05;;;;;;;18.12;80.69;101186.06;678682;29;1976;-44
2022/05/18 00:41:40;;;;;;;4.47;2.80;;;;;;;18.12;81.06;101186.06;679040;29;1260;-43
2022/05/18 00:42:01;;;;;;;4.55;2.97;;;;;;;18.11;81.58;101181.69;680157;29;1185;-43
2022/05/18 00:42:25;;;;;;;4.97;3.00;;;;;;;18.10;81.72;101186.13;679682;29;963;-42
2022/05/18 00:42:46;;;;;;;5.32;3.20;;;;;;;18.11;80.84;101184.34;681474;28;1378;-44
2022/05/18 00:43:19;;;;;;;5.80;3.22;;;;;;;18.15;79.98;101180.69;683301;28;1207;-46
2022/05/18 00:43:43;;;;;;;6.28;3.13;;;;;;;18.14;80.58;101186.91;686794;28;4842;-44
2022/05/18 00:44:05;;;;;;;6.25;3.00;;;;;;;18.14;80.59;101193.06;685978;28;1331;-45
2022/05/18 00:44:26;;;;;;;4.90;3.22;;;;;;;18.17;79.79;101186.81;686202;28;1386;-44
2022/05/18 00:44:46;;;;;;;5.78;3.28;;;;;;;18.18;80.34;101188.56;686750;28;1347;-43
2022/05/18 00:45:07;;;;;;;5.75;3.20;;;;;;;18.16;80.96;101185.06;686155;28;1430;-43
2022/05/18 00:45:28;;;;;;;6.65;3.22;;;;;;;18.14;81.22;101193.06;686287;28;1455;-44
2022/05/18 00:45:48;;;;;;;5.23;3.00;;;;;;;18.13;80.88;101185.16;683176;28;1504;-43
2022/05/18 00:46:13;;;;;;;4.63;3.00;;;;;;;18.12;80.21;101186.94;683812;28;1334;-44
2022/05/18 00:46:34;;;;;;;5.75;3.15;;;;;;;18.15;79.92;101193.91;683336;28;4411;-44
2022/05/18 00:46:54;;;;;;;6.07;3.33;;;;;;;18.17;79.89;101186.81;681632;28;1247;-45
2022/05/18 00:47:15;;;;;;;6.13;3.30;;;;;;;18.19;79.91;101188.53;683319;28;1331;-43
2022/05/18 00:47:38;;;;;;;5.73;3.10;;;;;;;18.26;79.60;101186.53;685466;28;1445;-45
2022/05/18 00:47:59;;;;;;;5.75;3.05;;;;;;;18.25;79.58;101184.81;687671;28;1209;-45
2022/05/18 00:48:19;;;;;;;6.30;3.03;;;;;;;18.27;79.59;101190.94;685021;28;1300;-44
2022/05/18 00:48:44;;;;;;;6.68;3.10;;;;;;;18.43;79.05;101190.47;683569;28;1494;-45
2022/05/18 00:49:07;;;;;;;6.20;2.95;;;;;;;18.38;79.74;101190.63;687284;28;1330;-43
2022/05/18 00:49:28;;;;;;;5.63;2.90;;;;;;;18.34;79.67;101188.97;681865;28;4918;-43
2022/05/18 00:49:53;;;;;;;6.30;3.10;;;;;;;18.31;80.03;101195.22;683302;28;1235;-43
2022/05/18 00:50:19;;;;;;;5.93;3.10;;;;;;;18.26;80.31;101190.97;679296;29;1284;-46
2022/05/18 00:50:42;;;;;;;5.78;3.13;;;;;;;18.21;80.49;101189.31;679022;29;1260;-43
2022/05/18 00:51:06;;;;;;;5.35;3.00;;;;;;;18.17;81.40;101189.47;682307;28;1381;-44
2022/05/18 00:51:53;;;;;;;5.28;2.80;;;;;;;18.12;81.27;101189.56;685299;28;1260;-43
2022/05/18 00:52:14;;;;;;;5.05;3.10;;;;;;;18.10;81.92;101185.25;686776;28;4475;-44
2022/05/18 00:52:47;;;;;;;4.97;3.00;;;;;;;18.06;81.87;101188.91;688525;28;1199;-45
2022/05/18 00:53:26;;;;;;;6.20;3.17;;;;;;;18.02;81.26;101188.97;691252;28;1419;-43
2022/05/18 00:53:56;;;;;;;6.03;3.35;;;;;;;18.10;80.25;101190.56;689896;28;1346;-44
2022/05/18 00:54:21;;;;;;;6.50;3.63;;;;;;;18.12;79.99;101188.72;689500;28;1278;-47
2022/05/18 00:54:43;;;;;;;6.25;3.30;;;;;;;18.17;79.92;101192.97;688408;28;1487;-44
2022/05/18 00:55:08;;;;;;;6.38;3.25;;;;;;;18.19;80.67;101190.28;687346;28;1443;-44
2022/05/18 00:55:33;;;;;;;4.95;3.05;;;;;;;18.26;80.06;101191.81;686373;28;4258;-43
2022/05/18 00:55:57;;;;;;;5.22;3.20;;;;;;;18.21;80.06;101191.97;687981;28;1247;-45
2022/05/18 00:56:23;;;;;;;5.35;3.20;;;;;;;18.20;79.35;101187.59;686903;28;1449;-46
2022/05/18 00:56:46;;;;;;;6.67;3.33;;;;;;;18.20;79.85;101189.38;686684;28;1929;-43
2022/05/18 00:57:06;;;;;;;6.07;3.30;;;;;;;18.15;80.30;101188.63;686736;28;1540;-43
2022/05/18 00:57:35;;;;;;;5.30;3.37;;;;;;;18.17;80.56;101195.63;687499;28;1453;-43
2022/05/18 00:58:15;;;;;;;5.53;3.28;;;;;;;18.19;80.42;101191.16;688944;28;1312;-43
2022/05/18 00:58:45;;;;;;;6.55;3.35;;;;;;;18.16;81.58;101190.38;685625;28;5033;-46
2022/05/18 00:59:10;;;;;;;6.20;3.05;;;;;;;18.12;80.57;101194.00;687501;28;1381;-44
2022/05/18 00:59:40;;;;;;;7.30;3.35;;;;;;;18.10;80.47;101187.91;689096;28;1464;-44
2022/05/18 01:00:06;;;;;;;5.38;3.17;;;;;;;18.08;80.34;101187.06;685053;28;1426;-44
2022/05/18 01:00:27;;;;;;;5.32;3.17;;;;;;;18.10;80.47;101191.41;685680;28;1453;-44
2022/05/18 01:00:50;;;;;;;5.53;3.40;;;;;;;18.07;81.00;101195.91;687492;28;1168;-43
2022/05/18 01:01:11;;;;;;;5.05;3.35;;;;;;;18.02;81.53;101190.75;687418;28;1476;-43
2022/05/18 01:01:32;;;;;;;4.88;3.20;;;;;;;18.01;80.72;101189.91;688107;28;4616;-43
2022/05/18 01:01:53;;;;;;;5.22;3.25;;;;;;;18.03;80.35;101198.66;686655;28;1176;-44
2022/05/18 01:02:14;;;;;;;5.32;3.30;;;;;;;18.02;81.37;101196.03;686845;28;1290;-42
2022/05/18 01:02:38;;;;;;;5.10;3.20;;;;;;;18.00;81.46;101193.44;687414;28;1157;-43
2022/05/18 01:03:09;;;;;;;5.63;3.47;;;;;;;18.00;81.17;101189.94;688220;28;1079;-45
2022/05/18 01:03:36;;;;;;;5.05;3.25;;;;;;;17.97;81.25;101196.19;688053;28;1497;-43
2022/05/18 01:03:57;;;;;;;5.90;3.45;;;;;;;17.97;81.02;101196.19;686356;28;1235;-43
2022/05/18 01:04:18;;;;;;;5.75;3.33;;;;;;;17.95;81.30;101192.69;687721;28;4271;-44
2022/05/18 01:04:41;;;;;;;6.07;3.28;;;;;;;17.97;80.91;101201.47;688279;28;1429;-43
2022/05/18 01:05:05;;;;;;;5.57;3.45;;;;;;;17.97;80.73;101198.81;687393;28;959;-43
2022/05/18 01:05:30;;;;;;;6.13;3.50;;;;;;;17.99;81.50;101199.63;686852;28;1378;-43
2022/05/18 01:05:59;;;;;;;5.00;3.20;;;;;;;17.97;81.80;101198.81;687369;28;1390;-42
2022/05/18 01:06:32;;;;;;;6.43;3.30;;;;;;;17.96;81.54;101199.72;686171;28;1239;-43
2022/05/18 01:07:07;;;;;;;5.85;3.30;;;;;;;17.99;81.45;101197.00;688280;28;1438;-43
2022/05/18 01:07:33;;;;;;;7.32;3.50;;;;;;;18.04;80.99;101197.75;684518;28;4548;-45
2022/05/18 01:07:57;;;;;;;6.13;3.33;;;;;;;18.02;81.74;101196.91;684030;28;1282;-45
2022/05/18 01:08:29;;;;;;;5.55;3.47;;;;;;;18.03;81.69;101196.00;683684;28;1393;-49
2022/05/18 01:09:01;;;;;;;5.35;3.13;;;;;;;17.97;81.74;101201.47;686802;28;1359;-43
2022/05/18 01:09:27;;;;;;;4.93;3.20;;;;;;;17.96;81.46;101191.78;686265;28;1279;-44
2022/05/18 01:09:50;;;;;;;5.65;3.33;;;;;;;17.92;82.07;101192.78;687137;28;959;-44
2022/05/18 01:10:10;;;;;;;5.85;3.50;;;;;;;17.91;82.11;101195.44;686799;28;1207;-43
2022/05/18 01:10:31;;;;;;;5.45;3.35;;;;;;;17.87;81.96;101195.53;687437;28;4636;-44
2022/05/18 01:10:51;;;;;;;4.83;2.97;;;;;;;17.86;82.49;101198.19;688277;28;1186;-43
2022/05/18 01:11:12;;;;;;;4.97;3.05;;;;;;;17.84;81.99;101189.44;687073;28;1359;-43
2022/05/18 01:11:35;;;;;;;5.60;3.10;;;;;;;17.83;83.13;101199.16;687082;28;1485;-43
2022/05/18 01:11:55;;;;;;;5.20;3.10;;;;;;;17.80;83.04;101198.38;687486;28;1955;-44
2022/05/18 01:12:19;;;;;;;5.25;3.10;;;;;;;17.79;82.85;101196.63;682976;28;1315;-45
2022/05/18 01:12:39;;;;;;;5.03;3.10;;;;;;;17.78;82.36;101194.91;684704;28;1319;-44
2022/05/18 01:13:02;;;;;;;5.50;3.20;;;;;;;17.78;82.18;101201.06;682186;28;3621;-43
2022/05/18 01:13:23;;;;;;;5.93;3.30;;;;;;;17.78;82.89;101200.19;683690;28;4480;-44
2022/05/18 01:13:44;;;;;;;5.43;3.25;;;;;;;17.75;83.70;101200.25;685175;28;1192;-43
2022/05/18 01:14:15;;;;;;;5.47;3.13;;;;;;;17.73;83.77;101200.28;685872;28;2011;-44
2022/05/18 01:14:44;;;;;;;4.53;3.17;;;;;;;17.72;83.37;101202.97;688430;28;1295;-44
2022/05/18 01:15:08;;;;;;;6.18;3.63;;;;;;;17.70;83.22;101203.88;687910;28;1452;-44
2022/05/18 01:15:29;;;;;;;5.32;3.35;;;;;;;17.69;84.40;101199.53;688103;28;1255;-43
2022/05/18 01:15:50;;;;;;;4.55;3.03;;;;;;;17.68;84.35;101205.72;687608;28;1771;-43
2022/05/18 01:16:11;;;;;;;4.80;3.08;;;;;;;17.67;83.94;101205.75;687747;28;1465;-44
2022/05/18 01:16:31;;;;;;;5.13;3.43;;;;;;;17.66;84.13;101204.00;688788;28;4299;-43
2022/05/18 01:16:53;;;;;;;6.83;3.37;;;;;;;17.69;84.35;101201.28;688168;28;1926;-43
2022/05/18 01:17:18;;;;;;;6.10;3.15;;;;;;;17.69;83.86;101204.81;686673;28;1179;-43
2022/05/18 01:17:42;;;;;;;5.38;2.90;;;;;;;17.69;83.86;101203.94;686379;28;1140;-43
2022/05/18 01:18:03;;;;;;;6.13;3.08;;;;;;;17.67;83.89;101209.25;687422;28;1258;-44
2022/05/18 01:18:24;;;;;;;5.05;3.20;;;;;;;17.64;83.38;101204.06;687518;28;1176;-43
2022/05/18 01:18:45;;;;;;;4.78;3.20;;;;;;;17.62;83.54;101205.00;687865;28;1167;-43
2022/05/18 01:19:16;;;;;;;4.78;3.00;;;;;;;17.60;84.71;101210.34;687861;28;1222;-44
2022/05/18 01:19:58;;;;;;;5.00;3.15;;;;;;;17.55;84.40;101198.13;685547;28;4762;-43
2022/05/18 01:20:25;;;;;;;6.80;3.25;;;;;;;17.52;84.50;101209.66;690063;28;1013;-45
2022/05/18 01:20:46;;;;;;;5.90;3.10;;;;;;;17.51;84.52;101207.91;690361;28;1484;-44
2022/05/18 01:21:07;;;;;;;5.75;3.10;;;;;;;17.49;84.26;101205.31;686830;28;1184;-44
2022/05/18 01:21:38;;;;;;;5.40;3.00;;;;;;;17.47;85.31;101203.59;686464;28;1485;-43
2022/05/18 01:22:03;;;;;;;5.35;3.10;;;;;;;17.46;84.64;101210.69;684550;28;1643;-43
2022/05/18 01:22:55;;;;;;;5.43;3.20;;;;;;;17.42;85.00;101208.13;684181;28;4523;-44
2022/05/18 01:23:38;;;;;;;4.93;3.10;;;;;;;17.34;85.52;101213.63;684521;28;1386;-43
2022/05/18 01:24:06;;;;;;;5.30;3.25;;;;;;;17.33;85.38;101204.84;686624;28;1183;-43
2022/05/18 01:24:58;;;;;;;5.68;3.17;;;;;;;17.32;85.53;101207.47;686997;28;1540;-44
2022/05/18 01:25:47;;;;;;;5.00;3.20;;;;;;;17.32;85.18;101215.41;675606;29;4435;-43
2022/05/18 01:26:19;;;;;;;5.32;3.45;;;;;;;17.31;85.37;101206.63;686651;28;1360;-43
2022/05/18 01:26:49;;;;;;;5.43;3.15;;;;;;;17.31;85.98;101208.41;687565;28;1201;-43
2022/05/18 01:27:09;;;;;;;5.80;3.10;;;;;;;17.29;85.82;101207.56;686839;28;1322;-44
2022/05/18 01:27:30;;;;;;;5.90;3.20;;;;;;;17.28;85.84;101206.72;687796;28;1445;-44
2022/05/18 01:27:51;;;;;;;6.18;3.42;;;;;;;17.26;85.96;101207.66;688197;28;1384;-45
2022/05/18 01:28:12;;;;;;;5.82;3.22;;;;;;;17.25;85.89;101200.63;687254;28;1414;-43
2022/05/18 01:28:38;;;;;;;5.00;3.13;;;;;;;17.23;85.85;101207.72;686245;28;5529;-43
2022/05/18 01:29:00;;;;;;;5.38;3.30;;;;;;;17.21;86.22;101207.78;686250;28;1187;-43
2022/05/18 01:29:23;;;;;;;5.43;3.22;;;;;;;17.20;86.09;101208.66;687057;28;1207;-44
2022/05/18 01:29:43;;;;;;;5.22;3.10;;;;;;;17.21;86.04;101206.88;686371;28;1188;-43
2022/05/18 01:30:06;;;;;;;4.85;3.10;;;;;;;17.17;86.29;101206.09;687917;28;1178;-45
2022/05/18 01:30:29;;;;;;;4.65;3.10;;;;;;;17.14;86.39;101212.31;688639;28;1237;-44
2022/05/18 01:30:49;;;;;;;5.75;3.40;;;;;;;17.12;86.94;101211.47;686740;28;1363;-43
2022/05/18 01:31:10;;;;;;;6.18;3.47;;;;;;;17.13;86.26;101213.22;687994;28;1215;-43
2022/05/18 01:31:50;;;;;;;5.73;3.13;;;;;;;17.15;86.46;101210.53;685699;28;4445;-44
2022/05/18 01:32:16;;;;;;;4.43;2.97;;;;;;;17.14;87.04;101214.97;686493;28;1354;-44
2022/05/18 01:32:42;;;;;;;5.15;3.30;;;;;;;17.12;87.00;101210.63;684478;28;1492;-43
2022/05/18 01:33:07;;;;;;;7.05;3.28;;;;;;;17.11;86.94;101216.78;677881;29;1503;-44
2022/05/18 01:33:28;;;;;;;5.55;3.22;;;;;;;17.12;87.18;101216.75;679173;29;1156;-43
2022/05/18 01:33:48;;;;;;;5.60;3.30;;;;;;;17.13;86.72;101215.88;678724;28;1448;-43
2022/05/18 01:34:09;;;;;;;6.18;3.30;;;;;;;17.14;86.55;101214.06;678768;29;1465;-43
2022/05/18 01:34:33;;;;;;;6.90;3.50;;;;;;;17.15;86.82;101210.53;682108;28;4444;-44
2022/05/18 01:34:54;;;;;;;5.30;3.13;;;;;;;17.11;86.81;101212.41;686325;28;1390;-43
2022/05/18 01:35:18;;;;;;;5.53;3.20;;;;;;;17.12;86.65;101213.25;687122;28;1160;-43
2022/05/18 01:35:41;;;;;;;5.78;3.20;;;;;;;17.11;86.33;101211.50;688080;28;1258;-43
2022/05/18 01:36:03;;;;;;;5.18;3.00;;;;;;;17.10;86.29;101215.94;688042;28;1344;-44
2022/05/18 01:36:23;;;;;;;6.30;3.35;;;;;;;17.11;86.45;101214.16;687665;28;856;-43
2022/05/18 01:36:46;;;;;;;5.93;3.30;;;;;;;17.10;86.39;101213.28;688392;28;1906;-43
2022/05/18 01:37:12;;;;;;;5.47;3.33;;;;;;;17.10;86.93;101220.34;687360;28;1346;-43
2022/05/18 01:37:32;;;;;;;6.18;3.38;;;;;;;17.08;86.46;101214.22;687303;28;4317;-43
2022/05/18 01:37:59;;;;;;;6.33;3.37;;;;;;;17.07;87.37;101216.03;687999;28;1540;-43
2022/05/18 01:38:20;;;;;;;5.82;3.38;;;;;;;17.08;87.25;101217.72;687244;28;1128;-43
2022/05/18 01:38:41;;;;;;;5.55;3.30;;;;;;;17.10;86.99;101212.41;684638;28;1163;-44
2022/05/18 01:39:03;;;;;;;5.00;3.10;;;;;;;17.10;86.88;101230.91;679799;28;4482;-43
2022/05/18 01:39:27;;;;;;;4.80;3.05;;;;;;;17.09;86.53;101226.53;680039;29;1487;-44
2022/05/18 01:39:56;;;;;;;4.85;2.83;;;;;;;17.10;86.29;101222.97;681436;28;1410;-44
2022/05/18 01:40:38;;;;;;;5.07;3.17;;;;;;;17.13;85.63;101220.28;682100;28;4436;-43
2022/05/18 01:41:12;;;;;;;5.28;3.42;;;;;;;17.10;87.15;101223.88;687250;28;1202;-43
2022/05/18 01:41:37;;;;;;;6.25;3.40;;;;;;;17.08;87.57;101224.81;686987;28;1488;-42
2022/05/18 01:42:00;;;;;;;5.30;3.42;;;;;;;17.07;87.53;101223.06;687372;28;2219;-43
2022/05/18 01:42:41;;;;;;;5.30;3.33;;;;;;;17.05;86.84;101220.44;683247;28;1243;-43
2022/05/18 01:43:23;;;;;;;5.35;3.38;;;;;;;17.02;87.39;101226.66;684386;28;1180;-43
2022/05/18 01:43:54;;;;;;;5.43;3.30;;;;;;;17.06;87.00;101223.94;684159;28;5302;-44
2022/05/18 01:44:15;;;;;;;5.72;3.20;;;;;;;17.08;87.10;101224.81;686159;28;1171;-43
2022/05/18 01:44:38;;;;;;;6.25;3.25;;;;;;;17.06;87.02;101231.88;684678;28;1097;-43
2022/05/18 01:44:59;;;;;;;6.15;3.30;;;;;;;17.04;86.91;101223.13;684299;28;1218;-43
2022/05/18 01:45:20;;;;;;;5.93;3.20;;;;;;;17.04;87.22;101229.28;681762;28;1361;-44
2022/05/18 01:45:41;;;;;;;5.40;3.38;;;;;;;17.05;86.79;101231.00;681221;28;1176;-43
2022/05/18 01:46:06;;;;;;;7.68;3.50;;;;;;;17.05;86.88;101230.16;681751;28;1125;-44
2022/05/18 01:46:31;;;;;;;7.50;3.35;;;;;;;17.03;87.44;101222.28;684028;28;4272;-43
2022/05/18 01:46:52;;;;;;;5.53;3.22;;;;;;;17.04;86.95;101226.63;685794;28;1547;-43
2022/05/18 01:47:12;;;;;;;6.25;3.58;;;;;;;17.11;85.87;101230.00;684266;28;1546;-44
2022/05/18 01:47:35;;;;;;;6.10;3.60;;;;;;;17.11;86.24;101227.38;684545;28;1509;-44
2022/05/18 01:48:07;;;;;;;5.43;3.47;;;;;;;17.14;86.48;101227.28;683661;28;1483;-43
2022/05/18 01:48:35;;;;;;;5.20;3.47;;;;;;;17.16;85.76;101226.34;683908;28;1225;-44
2022/05/18 01:48:55;;;;;;;6.00;3.55;;;;;;;17.18;85.81;101227.19;683233;28;1271;-43
2022/05/18 01:49:16;;;;;;;5.68;3.42;;;;;;;17.15;86.23;101221.09;684424;28;4478;-44
2022/05/18 01:49:39;;;;;;;6.00;3.40;;;;;;;17.15;85.91;101231.66;684963;28;1152;-43
2022/05/18 01:50:03;;;;;;;6.15;3.30;;;;;;;17.13;86.59;101222.94;687444;28;1101;-44
2022/05/18 01:50:28;;;;;;;5.68;3.10;;;;;;;17.11;86.79;101228.25;687851;28;1168;-43
2022/05/18 01:50:50;;;;;;;5.80;3.60;;;;;;;17.08;87.08;101230.09;686671;28;1374;-43
2022/05/18 01:51:14;;;;;;;6.35;3.60;;;;;;;17.05;87.04;101222.22;688820;28;2009;-45
2022/05/18 01:51:43;;;;;;;6.03;3.38;;;;;;;17.05;87.40;101227.50;688626;28;1235;-43
2022/05/18 01:52:04;;;;;;;5.55;3.22;;;;;;;17.02;87.09;101224.03;686859;28;1622;-44
2022/05/18 01:52:24;;;;;;;5.78;3.40;;;;;;;16.99;87.58;101229.38;687394;28;4293;-45
2022/05/18 01:52:45;;;;;;;5.65;3.50;;;;;;;16.97;87.51;101225.88;687492;28;1310;-43